Time;durP1;ratioP1;P1;durP2;ratioP2;P2;SDS_P1;SDS_P2;PMS_P1;PMS_P2;Temp;Humidity;BMP_temperature;BMP_pressure;BME280_temperature;BME280_humidity;BME280_pressure;Samples;Min_cycle;Max_cycle;Signal;HPM_P1;HPM_P2
2022/12/01 00:00:24;;;;;;;;;;;2.30;99.90;;;;;;5104327;28;19947;-69
2022/12/01 00:02:50;;;;;;;;;;;2.20;99.90;;;;;;5091157;28;19952;-69
2022/12/01 00:05:18;;;;;;;;;;;2.30;99.90;;;;;;5083570;28;19935;-70
2022/12/01 00:07:47;;;;;;;;;;;2.20;99.90;;;;;;5083357;28;20208;-69
2022/12/01 00:10:25;;;;;;;;;;;2.30;99.90;;;;;;5103573;28;20168;-69
2022/12/01 00:12:52;;;;;;;;;;;2.30;99.90;;;;;;5103674;28;19923;-70
2022/12/01 00:15:19;;;;;;;;;;;2.20;99.90;;;;;;5103745;28;19959;-70
2022/12/01 00:17:46;;;;;;;;;;;2.20;99.90;;;;;;5103097;28;20134;-69
2022/12/01 00:20:15;;;;;;;;;;;2.30;99.90;;;;;;5100779;28;19988;-70
2022/12/01 00:22:44;;;;;;;;;;;2.30;99.90;;;;;;5103648;28;19920;-69
2022/12/01 00:25:11;;;;;;;;;;;2.30;99.90;;;;;;5103634;28;19965;-69
2022/12/01 00:27:37;;;;;;;;;;;2.20;99.90;;;;;;5102916;28;20255;-69
2022/12/01 00:30:04;;;;;;;;;;;2.20;99.90;;;;;;5110252;28;19983;-69
2022/12/01 00:32:31;;;;;;;;;;;2.20;99.90;;;;;;5110249;28;20223;-69
2022/12/01 00:34:58;;;;;;;;;;;2.20;99.90;;;;;;5110386;28;19970;-69
2022/12/01 00:37:25;;;;;;;;;;;2.20;99.90;;;;;;5109495;28;19952;-69
2022/12/01 00:39:53;;;;;;;;;;;2.30;99.90;;;;;;5110532;28;19964;-70
2022/12/01 00:42:19;;;;;;;;;;;2.30;99.90;;;;;;5110509;28;19966;-69
2022/12/01 00:44:46;;;;;;;;;;;2.30;99.90;;;;;;5110197;28;19996;-70
2022/12/01 00:47:13;;;;;;;;;;;2.30;99.90;;;;;;5110207;28;19958;-70
2022/12/01 00:49:39;;;;;;;;;;;2.30;99.90;;;;;;5110520;28;20019;-70
2022/12/01 00:52:06;;;;;;;;;;;2.20;99.90;;;;;;5110524;28;19952;-70
2022/12/01 00:54:33;;;;;;;;;;;2.20;99.90;;;;;;5110437;28;19948;-70
2022/12/01 00:57:01;;;;;;;;;;;2.20;99.90;;;;;;5109429;28;19952;-69
2022/12/01 00:59:27;;;;;;;;;;;2.20;99.90;;;;;;5109731;28;19983;-70
2022/12/01 01:01:54;;;;;;;;;;;2.20;99.90;;;;;;5111186;28;19991;-69
2022/12/01 01:04:21;;;;;;;;;;;2.20;99.90;;;;;;5112740;28;19947;-70
2022/12/01 01:06:47;;;;;;;;;;;2.20;99.90;;;;;;5110082;28;20165;-70
2022/12/01 01:09:15;;;;;;;;;;;2.20;99.90;;;;;;5110726;28;19927;-68
2022/12/01 01:11:42;;;;;;;;;;;2.30;99.90;;;;;;5110919;28;20146;-70
2022/12/01 01:14:10;;;;;;;;;;;2.30;99.90;;;;;;5110382;28;20167;-70
2022/12/01 01:16:36;;;;;;;;;;;2.30;99.90;;;;;;5109970;28;20231;-70
2022/12/01 01:19:03;;;;;;;;;;;2.30;99.90;;;;;;5103817;28;19995;-70
2022/12/01 01:21:30;;;;;;;;;;;2.30;99.90;;;;;;5108692;28;19958;-70
2022/12/01 01:23:56;;;;;;;;;;;2.30;99.90;;;;;;5110728;28;19943;-70
2022/12/01 01:26:24;;;;;;;;;;;2.30;99.90;;;;;;5109784;28;20180;-70
2022/12/01 01:28:51;;;;;;;;;;;2.30;99.90;;;;;;5106484;28;19952;-70
2022/12/01 01:31:20;;;;;;;;;;;2.30;99.90;;;;;;5110567;28;19920;-70
2022/12/01 01:33:46;;;;;;;;;;;2.40;99.90;;;;;;5110539;28;19928;-70
2022/12/01 01:36:13;;;;;;;;;;;2.30;99.90;;;;;;5109530;28;19927;-70
2022/12/01 01:38:40;;;;;;;;;;;2.30;99.90;;;;;;5110268;28;19964;-70
2022/12/01 01:41:07;;;;;;;;;;;2.40;99.90;;;;;;5106537;28;19920;-70
2022/12/01 01:43:42;;;;;;;;;;;2.40;99.90;;;;;;5095986;28;20191;-69
2022/12/01 01:46:10;;;;;;;;;;;2.40;99.90;;;;;;5106405;28;19987;-70
2022/12/01 01:48:38;;;;;;;;;;;2.40;99.90;;;;;;5107083;28;19988;-70
2022/12/01 01:51:05;;;;;;;;;;;2.40;99.90;;;;;;5107040;28;19955;-70
2022/12/01 01:53:32;;;;;;;;;;;2.40;99.90;;;;;;5107098;28;19952;-69
2022/12/01 01:55:59;;;;;;;;;;;2.30;99.90;;;;;;5105921;28;20097;-70
2022/12/01 01:58:26;;;;;;;;;;;2.40;99.90;;;;;;5106240;28;20168;-69
2022/12/01 02:00:52;;;;;;;;;;;2.40;99.90;;;;;;5107252;28;19951;-69
2022/12/01 02:03:20;;;;;;;;;;;2.30;99.90;;;;;;5106267;28;19986;-69
2022/12/01 02:05:48;;;;;;;;;;;2.30;99.90;;;;;;5106342;28;19970;-69
2022/12/01 02:08:14;;;;;;;;;;;2.30;99.90;;;;;;5106066;28;20164;-70
2022/12/01 02:10:49;;;;;;;;;;;2.30;99.90;;;;;;5105581;28;19994;-70
2022/12/01 02:13:22;;;;;;;;;;;2.40;99.90;;;;;;5105827;28;19951;-70
2022/12/01 02:15:53;;;;;;;;;;;2.40;99.90;;;;;;5105215;28;20204;-70
2022/12/01 02:18:23;;;;;;;;;;;2.40;99.90;;;;;;5105178;28;19983;-70
2022/12/01 02:20:59;;;;;;;;;;;2.30;99.90;;;;;;5094402;28;19920;-70
2022/12/01 02:23:40;;;;;;;;;;;2.40;99.90;;;;;;5105859;28;19975;-69
2022/12/01 02:26:15;;;;;;;;;;;2.30;99.90;;;;;;5105155;28;19956;-70
2022/12/01 02:28:54;;;;;;;;;;;2.40;99.90;;;;;;5105640;28;19947;-70
2022/12/01 02:31:24;;;;;;;;;;;2.40;99.90;;;;;;5105620;28;19958;-70
2022/12/01 02:33:52;;;;;;;;;;;2.40;99.90;;;;;;5105246;28;20219;-69
2022/12/01 02:36:22;;;;;;;;;;;2.40;99.90;;;;;;5104625;28;19948;-69
2022/12/01 02:38:52;;;;;;;;;;;2.40;99.90;;;;;;5105236;28;19978;-70
2022/12/01 02:41:19;;;;;;;;;;;2.40;99.90;;;;;;5105526;28;19948;-69
2022/12/01 02:43:53;;;;;;;;;;;2.40;99.90;;;;;;5105273;28;19920;-70
2022/12/01 02:46:22;;;;;;;;;;;2.40;99.90;;;;;;5104474;28;20224;-70
2022/12/01 02:48:51;;;;;;;;;;;2.40;99.90;;;;;;5105051;28;19946;-70
2022/12/01 02:51:20;;;;;;;;;;;2.40;99.90;;;;;;5105331;28;19978;-70
2022/12/01 02:53:47;;;;;;;;;;;2.40;99.90;;;;;;5105121;28;20223;-70
2022/12/01 02:56:14;;;;;;;;;;;2.40;99.90;;;;;;5104240;28;20286;-70
2022/12/01 02:58:41;;;;;;;;;;;2.40;99.90;;;;;;5104954;28;20034;-70
2022/12/01 03:01:17;;;;;;;;;;;2.50;99.90;;;;;;5104796;28;19948;-70
2022/12/01 03:04:08;;;;;;;;;;;2.40;99.90;;;;;;5104965;28;19920;-69
2022/12/01 03:06:44;;;;;;;;;;;2.40;99.90;;;;;;5083661;28;19920;-70
2022/12/01 03:09:16;;;;;;;;;;;2.40;99.90;;;;;;5104815;28;19997;-70
2022/12/01 03:11:46;;;;;;;;;;;2.40;99.90;;;;;;5104649;28;19935;-70
2022/12/01 03:14:18;;;;;;;;;;;2.40;99.90;;;;;;5104431;28;20153;-70
2022/12/01 03:16:48;;;;;;;;;;;2.40;99.90;;;;;;5103816;28;19920;-70
2022/12/01 03:19:18;;;;;;;;;;;2.40;99.90;;;;;;5099959;28;19963;-70
2022/12/01 03:21:50;;;;;;;;;;;2.40;99.90;;;;;;5083980;28;20291;-70
2022/12/01 03:24:19;;;;;;;;;;;2.30;99.90;;;;;;5084378;28;19978;-70
2022/12/01 03:26:52;;;;;;;;;;;2.30;99.90;;;;;;5083373;28;19935;-70
2022/12/01 03:29:21;;;;;;;;;;;2.40;99.90;;;;;;5083881;28;19924;-69
2022/12/01 03:31:51;;;;;;;;;;;2.40;99.90;;;;;;5084177;28;19956;-70
2022/12/01 03:34:22;;;;;;;;;;;2.40;99.90;;;;;;5084161;28;19956;-69
2022/12/01 03:36:53;;;;;;;;;;;2.40;99.90;;;;;;5101441;28;19926;-70
2022/12/01 03:39:21;;;;;;;;;;;2.30;99.90;;;;;;5104280;28;19927;-70
2022/12/01 03:41:51;;;;;;;;;;;2.30;99.90;;;;;;5103950;28;19940;-70
2022/12/01 03:44:20;;;;;;;;;;;2.30;99.90;;;;;;5103834;28;19948;-70
2022/12/01 03:46:49;;;;;;;;;;;2.30;99.90;;;;;;5103449;28;19959;-69
2022/12/01 03:49:16;;;;;;;;;;;2.40;99.90;;;;;;5104308;28;20115;-69
2022/12/01 03:51:49;;;;;;;;;;;2.40;99.90;;;;;;5104132;28;19951;-70
2022/12/01 03:54:19;;;;;;;;;;;2.50;99.90;;;;;;5103802;28;19955;-70
2022/12/01 03:56:47;;;;;;;;;;;2.40;99.90;;;;;;5103023;28;20008;-69
2022/12/01 03:59:15;;;;;;;;;;;2.50;99.90;;;;;;5103550;28;19962;-70
2022/12/01 04:01:42;;;;;;;;;;;2.50;99.90;;;;;;5103795;28;19956;-70
2022/12/01 04:04:10;;;;;;;;;;;2.50;99.90;;;;;;5103543;28;19951;-70
2022/12/01 04:06:37;;;;;;;;;;;2.50;99.90;;;;;;5102891;28;20253;-70
2022/12/01 04:09:04;;;;;;;;;;;2.40;99.90;;;;;;5103965;28;19954;-70
2022/12/01 04:14:16;;;;;;;;;;;2.40;99.90;;;;;;5103637;28;20254;-69
2022/12/01 04:16:42;;;;;;;;;;;2.40;99.90;;;;;;5102960;28;19980;-70
2022/12/01 04:19:09;;;;;;;;;;;2.40;99.90;;;;;;5096338;28;20007;-70
2022/12/01 04:21:36;;;;;;;;;;;2.40;99.90;;;;;;5098875;28;19954;-69
2022/12/01 04:24:02;;;;;;;;;;;2.40;99.90;;;;;;5103646;28;19947;-69
2022/12/01 04:26:31;;;;;;;;;;;2.40;99.90;;;;;;5103012;28;19919;-70
2022/12/01 04:28:59;;;;;;;;;;;2.40;99.90;;;;;;5103413;28;19927;-70
2022/12/01 04:31:26;;;;;;;;;;;2.40;99.90;;;;;;5095210;28;19951;-70
2022/12/01 04:33:53;;;;;;;;;;;2.40;99.90;;;;;;5103504;28;19958;-70
2022/12/01 04:36:20;;;;;;;;;;;2.40;99.90;;;;;;5101452;28;19955;-70
2022/12/01 04:38:47;;;;;;;;;;;2.40;99.90;;;;;;5103451;28;19966;-70
2022/12/01 04:41:14;;;;;;;;;;;2.40;99.90;;;;;;5103648;28;19952;-70
2022/12/01 04:43:41;;;;;;;;;;;2.40;99.90;;;;;;5103150;28;20220;-69
2022/12/01 04:46:09;;;;;;;;;;;2.40;99.90;;;;;;5102853;28;19951;-70
2022/12/01 04:48:36;;;;;;;;;;;2.40;99.90;;;;;;5103510;28;19991;-69
2022/12/01 04:51:03;;;;;;;;;;;2.40;99.90;;;;;;5103102;28;19987;-69
2022/12/01 04:53:30;;;;;;;;;;;2.30;99.90;;;;;;5103572;28;19951;-70
2022/12/01 04:55:56;;;;;;;;;;;2.30;99.90;;;;;;5102602;28;19955;-70
2022/12/01 04:58:23;;;;;;;;;;;2.40;99.90;;;;;;5103512;28;19927;-70
2022/12/01 05:00:50;;;;;;;;;;;2.40;99.90;;;;;;5103454;28;20151;-70
2022/12/01 05:03:18;;;;;;;;;;;2.40;99.90;;;;;;5103117;28;19951;-70
2022/12/01 05:05:44;;;;;;;;;;;2.40;99.90;;;;;;5092626;28;19983;-70
2022/12/01 05:08:11;;;;;;;;;;;2.40;99.90;;;;;;5102802;28;20238;-70
2022/12/01 05:10:38;;;;;;;;;;;2.50;99.90;;;;;;5103401;28;19983;-69
2022/12/01 05:13:05;;;;;;;;;;;2.50;99.90;;;;;;5102916;28;19996;-70
2022/12/01 05:15:32;;;;;;;;;;;2.50;99.90;;;;;;5104241;28;19935;-70
2022/12/01 05:17:59;;;;;;;;;;;2.50;99.90;;;;;;5106141;28;19920;-70
2022/12/01 05:23:11;;;;;;;;;;;2.50;99.90;;;;;;5106867;28;19942;-70
2022/12/01 05:25:38;;;;;;;;;;;2.50;99.90;;;;;;5106721;28;19951;-70
2022/12/01 05:28:05;;;;;;;;;;;2.50;99.90;;;;;;5106242;28;19955;-69
2022/12/01 05:30:32;;;;;;;;;;;2.50;99.90;;;;;;5106623;28;19920;-70
2022/12/01 05:32:59;;;;;;;;;;;2.50;99.90;;;;;;5106888;28;19927;-69
2022/12/01 05:35:27;;;;;;;;;;;2.40;99.90;;;;;;5106756;28;19951;-70
2022/12/01 05:37:54;;;;;;;;;;;2.50;99.90;;;;;;5106196;28;19951;-70
2022/12/01 05:40:21;;;;;;;;;;;2.50;99.90;;;;;;5106384;28;19920;-70
2022/12/01 05:42:47;;;;;;;;;;;2.50;99.90;;;;;;5106305;28;19960;-69
2022/12/01 05:45:14;;;;;;;;;;;2.50;99.90;;;;;;5106591;28;19955;-69
2022/12/01 05:47:41;;;;;;;;;;;2.50;99.90;;;;;;5106601;28;19963;-69
2022/12/01 05:50:08;;;;;;;;;;;2.40;99.90;;;;;;5106300;28;19983;-69
2022/12/01 05:52:36;;;;;;;;;;;2.50;99.90;;;;;;5106607;28;19971;-69
2022/12/01 05:55:03;;;;;;;;;;;2.50;99.90;;;;;;5106346;28;20235;-68
2022/12/01 05:57:29;;;;;;;;;;;2.50;99.90;;;;;;5105703;28;20181;-69
2022/12/01 05:59:56;;;;;;;;;;;2.50;99.90;;;;;;5105889;28;20239;-69
2022/12/01 06:02:25;;;;;;;;;;;2.50;99.90;;;;;;5097513;28;19952;-69
2022/12/01 06:04:52;;;;;;;;;;;2.50;99.90;;;;;;5086079;28;20179;-69
2022/12/01 06:07:18;;;;;;;;;;;2.50;99.90;;;;;;5085454;28;19988;-69
2022/12/01 06:09:46;;;;;;;;;;;2.50;99.90;;;;;;5085794;28;20116;-69
2022/12/01 06:12:13;;;;;;;;;;;2.50;99.90;;;;;;5085729;28;19944;-70
2022/12/01 06:14:40;;;;;;;;;;;2.50;99.90;;;;;;5085365;28;19956;-69
2022/12/01 06:17:06;;;;;;;;;;;2.50;99.90;;;;;;5084681;28;19982;-69
2022/12/01 06:19:33;;;;;;;;;;;2.50;99.90;;;;;;5096035;28;19991;-69
2022/12/01 06:22:00;;;;;;;;;;;2.50;99.90;;;;;;5106354;28;20162;-72
2022/12/01 06:24:26;;;;;;;;;;;2.50;99.90;;;;;;5106523;28;19987;-72
2022/12/01 06:26:54;;;;;;;;;;;2.50;99.90;;;;;;5105102;28;19951;-71
2022/12/01 06:29:21;;;;;;;;;;;2.50;99.90;;;;;;5106375;28;19955;-69
2022/12/01 06:31:48;;;;;;;;;;;2.50;99.90;;;;;;5105455;28;20176;-69
2022/12/01 06:34:14;;;;;;;;;;;2.50;99.90;;;;;;5101156;28;19956;-70
2022/12/01 06:36:41;;;;;;;;;;;2.50;99.90;;;;;;5086374;28;19955;-70
2022/12/01 06:39:08;;;;;;;;;;;2.50;99.90;;;;;;5096458;28;19951;-69
2022/12/01 06:41:35;;;;;;;;;;;2.50;99.90;;;;;;5105434;28;19942;-70
2022/12/01 06:44:03;;;;;;;;;;;2.50;99.90;;;;;;5104871;28;19955;-69
2022/12/01 06:46:30;;;;;;;;;;;2.50;99.90;;;;;;5104392;28;19979;-69
2022/12/01 06:48:57;;;;;;;;;;;2.50;99.90;;;;;;5105463;28;19955;-70
2022/12/01 06:51:23;;;;;;;;;;;2.40;99.90;;;;;;5105157;28;19956;-69
2022/12/01 06:53:52;;;;;;;;;;;2.40;99.90;;;;;;5105346;28;19955;-69
2022/12/01 06:56:19;;;;;;;;;;;2.40;99.90;;;;;;5104350;28;19987;-70
2022/12/01 06:58:46;;;;;;;;;;;2.40;99.90;;;;;;5104991;28;19951;-70
2022/12/01 07:01:14;;;;;;;;;;;2.40;99.90;;;;;;5105252;28;19959;-69
2022/12/01 07:03:47;;;;;;;;;;;2.40;99.90;;;;;;5102094;28;19963;-69
2022/12/01 07:06:14;;;;;;;;;;;2.40;99.90;;;;;;5104679;28;19958;-70
2022/12/01 07:08:40;;;;;;;;;;;2.40;99.90;;;;;;5104843;28;20250;-69
2022/12/01 07:11:08;;;;;;;;;;;2.50;99.90;;;;;;5104908;28;19956;-69
2022/12/01 07:13:35;;;;;;;;;;;2.50;99.90;;;;;;5104648;28;19944;-69
2022/12/01 07:16:01;;;;;;;;;;;2.50;99.90;;;;;;5104370;28;20014;-69
2022/12/01 07:18:29;;;;;;;;;;;2.50;99.90;;;;;;5105006;28;19958;-69
2022/12/01 07:20:58;;;;;;;;;;;2.40;99.90;;;;;;5104517;28;19951;-69
2022/12/01 07:23:25;;;;;;;;;;;2.40;99.90;;;;;;5104778;28;19958;-68
2022/12/01 07:25:57;;;;;;;;;;;2.40;99.90;;;;;;5101618;28;20211;-68
2022/12/01 07:28:24;;;;;;;;;;;2.40;99.90;;;;;;5104697;28;19951;-69
2022/12/01 07:30:50;;;;;;;;;;;2.50;99.90;;;;;;5104816;28;19958;-68
2022/12/01 07:33:17;;;;;;;;;;;2.50;99.90;;;;;;5104438;28;20274;-69
2022/12/01 07:35:45;;;;;;;;;;;2.50;99.90;;;;;;5103757;28;20266;-69
2022/12/01 07:38:12;;;;;;;;;;;2.50;99.90;;;;;;5103083;28;20023;-69
2022/12/01 07:40:38;;;;;;;;;;;2.50;99.90;;;;;;5104563;28;19987;-69
2022/12/01 07:43:05;;;;;;;;;;;2.50;99.90;;;;;;5104609;28;19987;-69
2022/12/01 07:45:31;;;;;;;;;;;2.50;99.90;;;;;;5104303;28;20173;-69
2022/12/01 07:47:58;;;;;;;;;;;2.60;99.90;;;;;;5103898;28;19951;-69
2022/12/01 07:50:25;;;;;;;;;;;2.60;99.90;;;;;;5104214;28;19987;-69
2022/12/01 07:52:53;;;;;;;;;;;2.60;99.90;;;;;;5104357;28;19951;-67
2022/12/01 07:55:19;;;;;;;;;;;2.60;99.90;;;;;;5104502;28;19983;-69
2022/12/01 07:57:46;;;;;;;;;;;2.60;99.90;;;;;;5103384;28;20000;-69
2022/12/01 08:00:13;;;;;;;;;;;2.60;99.90;;;;;;5104192;28;20176;-69
2022/12/01 08:02:40;;;;;;;;;;;2.50;99.90;;;;;;5104215;28;19927;-69
2022/12/01 08:05:07;;;;;;;;;;;2.50;99.90;;;;;;5104344;28;19988;-69
2022/12/01 08:07:33;;;;;;;;;;;2.50;99.90;;;;;;5103325;28;19983;-69
2022/12/01 08:10:01;;;;;;;;;;;2.60;99.90;;;;;;5103848;28;20248;-69
2022/12/01 08:12:28;;;;;;;;;;;2.70;99.90;;;;;;5103759;28;20271;-69
2022/12/01 08:14:55;;;;;;;;;;;2.60;99.90;;;;;;5104103;28;20223;-69
2022/12/01 08:17:21;;;;;;;;;;;2.60;99.90;;;;;;5103098;28;20180;-68
2022/12/01 08:19:48;;;;;;;;;;;2.60;99.90;;;;;;5095241;28;19920;-69
2022/12/01 08:22:14;;;;;;;;;;;2.70;99.90;;;;;;5103957;28;19959;-69
2022/12/01 08:24:41;;;;;;;;;;;2.70;99.90;;;;;;5101269;28;20196;-69
2022/12/01 08:27:09;;;;;;;;;;;2.70;99.90;;;;;;5103020;28;19959;-68
2022/12/01 08:29:36;;;;;;;;;;;2.80;99.90;;;;;;5103477;28;20227;-69
2022/12/01 08:32:02;;;;;;;;;;;2.80;99.90;;;;;;5103935;28;19943;-69
2022/12/01 08:34:29;;;;;;;;;;;2.90;99.90;;;;;;5103683;28;20002;-69
2022/12/01 08:36:56;;;;;;;;;;;2.90;99.90;;;;;;5102840;28;19958;-69
2022/12/01 08:39:22;;;;;;;;;;;2.80;99.90;;;;;;5103907;28;19955;-69
2022/12/01 08:41:49;;;;;;;;;;;2.80;99.90;;;;;;5103986;28;19970;-69
2022/12/01 08:44:17;;;;;;;;;;;2.90;99.90;;;;;;5103752;28;19963;-71
2022/12/01 08:46:43;;;;;;;;;;;2.90;99.90;;;;;;5103232;28;19990;-69
2022/12/01 08:49:10;;;;;;;;;;;2.90;99.90;;;;;;5104616;28;20235;-69
2022/12/01 08:51:37;;;;;;;;;;;2.90;99.90;;;;;;5108020;28;20149;-69
2022/12/01 08:54:04;;;;;;;;;;;2.80;99.90;;;;;;5107665;28;19955;-68
2022/12/01 08:56:31;;;;;;;;;;;2.90;99.90;;;;;;5107257;28;19983;-69
2022/12/01 08:58:58;;;;;;;;;;;2.90;99.90;;;;;;5107364;28;19979;-69
2022/12/01 09:01:26;;;;;;;;;;;2.90;99.90;;;;;;5106878;28;19982;-69
2022/12/01 09:04:04;;;;;;;;;;;2.90;99.90;;;;;;5087376;28;19920;-68
2022/12/01 09:06:31;;;;;;;;;;;3.00;99.90;;;;;;5086706;28;19924;-68
2022/12/01 09:08:58;;;;;;;;;;;3.00;99.90;;;;;;5087195;28;19979;-69
2022/12/01 09:11:25;;;;;;;;;;;3.10;99.90;;;;;;5086820;28;19927;-69
2022/12/01 09:13:52;;;;;;;;;;;3.10;99.90;;;;;;5086783;28;20271;-68
2022/12/01 09:16:18;;;;;;;;;;;3.10;99.90;;;;;;5095312;28;19956;-69
2022/12/01 09:18:47;;;;;;;;;;;3.10;99.90;;;;;;5107374;28;20068;-69
2022/12/01 09:21:15;;;;;;;;;;;3.20;99.90;;;;;;5106967;28;20298;-69
2022/12/01 09:23:41;;;;;;;;;;;3.30;99.90;;;;;;5106749;28;20252;-69
2022/12/01 09:26:09;;;;;;;;;;;3.30;99.90;;;;;;5104052;28;19989;-69
2022/12/01 09:28:36;;;;;;;;;;;3.40;99.90;;;;;;5107141;28;19920;-69
2022/12/01 09:31:04;;;;;;;;;;;3.40;99.90;;;;;;5106913;28;20243;-69
2022/12/01 09:33:30;;;;;;;;;;;3.40;99.90;;;;;;5107438;28;20164;-69
2022/12/01 09:35:59;;;;;;;;;;;3.50;99.90;;;;;;5103286;28;19951;-69
2022/12/01 09:38:25;;;;;;;;;;;3.50;99.90;;;;;;5097233;28;19920;-69
2022/12/01 09:40:52;;;;;;;;;;;3.70;99.90;;;;;;5108985;28;19963;-69
2022/12/01 09:43:20;;;;;;;;;;;3.70;99.90;;;;;;5106517;28;19951;-69
2022/12/01 09:45:48;;;;;;;;;;;3.70;99.90;;;;;;5106381;28;19966;-69
2022/12/01 09:48:26;;;;;;;;;;;3.70;99.90;;;;;;5106401;28;19927;-69
2022/12/01 09:50:53;;;;;;;;;;;3.60;99.90;;;;;;5106599;28;19959;-69
2022/12/01 09:53:22;;;;;;;;;;;3.60;99.90;;;;;;5106517;28;19987;-69
2022/12/01 09:55:49;;;;;;;;;;;3.50;99.90;;;;;;5105879;28;19988;-69
2022/12/01 09:58:17;;;;;;;;;;;3.50;99.90;;;;;;5106334;28;19962;-69
2022/12/01 10:00:45;;;;;;;;;;;3.50;99.90;;;;;;5105283;28;20271;-69
2022/12/01 10:03:16;;;;;;;;;;;3.60;99.90;;;;;;5106203;28;20208;-69
2022/12/01 10:05:44;;;;;;;;;;;3.70;99.90;;;;;;5105699;28;19995;-69
2022/12/01 10:08:13;;;;;;;;;;;3.60;99.90;;;;;;5105786;28;20263;-69
2022/12/01 10:10:43;;;;;;;;;;;3.70;99.90;;;;;;5106600;28;19962;-69
2022/12/01 10:13:16;;;;;;;;;;;3.70;99.90;;;;;;5106145;28;19971;-68
2022/12/01 10:15:45;;;;;;;;;;;3.70;99.90;;;;;;5106129;28;19992;-68
2022/12/01 10:18:17;;;;;;;;;;;3.70;99.90;;;;;;5105847;28;19967;-69
2022/12/01 10:20:46;;;;;;;;;;;3.70;99.90;;;;;;5105870;28;19979;-69
2022/12/01 10:23:25;;;;;;;;;;;3.80;99.90;;;;;;5106164;28;19959;-69
2022/12/01 10:25:58;;;;;;;;;;;3.80;99.90;;;;;;5105962;28;19951;-69
2022/12/01 10:28:44;;;;;;;;;;;3.80;99.90;;;;;;5105642;28;19981;-69
2022/12/01 10:31:15;;;;;;;;;;;3.80;99.90;;;;;;5105919;28;20120;-68
2022/12/01 10:33:53;;;;;;;;;;;3.80;99.90;;;;;;5103467;28;19956;-68
2022/12/01 10:36:21;;;;;;;;;;;3.90;99.90;;;;;;5096027;28;19920;-69
2022/12/01 10:38:47;;;;;;;;;;;4.10;99.90;;;;;;5085348;28;19967;-69
2022/12/01 10:41:18;;;;;;;;;;;4.20;99.90;;;;;;5097941;28;19979;-69
2022/12/01 10:43:46;;;;;;;;;;;4.40;99.90;;;;;;5105808;28;19962;-70
2022/12/01 10:46:19;;;;;;;;;;;4.60;99.90;;;;;;5105246;28;19958;-69
2022/12/01 10:48:52;;;;;;;;;;;4.60;99.90;;;;;;5105746;28;20017;-69
2022/12/01 10:51:21;;;;;;;;;;;4.70;99.90;;;;;;5105425;28;19920;-69
2022/12/01 10:53:48;;;;;;;;;;;4.70;99.90;;;;;;5105242;28;20263;-69
2022/12/01 10:56:18;;;;;;;;;;;4.70;99.90;;;;;;5104802;28;19962;-69
2022/12/01 10:58:47;;;;;;;;;;;4.60;99.90;;;;;;5105620;28;20005;-69
2022/12/01 11:01:18;;;;;;;;;;;4.60;99.90;;;;;;5105254;28;19995;-69
2022/12/01 11:03:49;;;;;;;;;;;4.60;99.90;;;;;;5089100;28;19927;-69
2022/12/01 11:06:20;;;;;;;;;;;4.50;99.90;;;;;;5104435;28;20456;-69
2022/12/01 11:08:52;;;;;;;;;;;4.40;99.90;;;;;;5105350;28;20160;-69
2022/12/01 11:11:30;;;;;;;;;;;4.30;99.90;;;;;;5105496;28;19955;-69
2022/12/01 11:13:59;;;;;;;;;;;4.20;99.90;;;;;;5104866;28;19984;-70
2022/12/01 11:16:36;;;;;;;;;;;4.20;99.90;;;;;;5104507;28;19951;-69
2022/12/01 11:19:17;;;;;;;;;;;4.30;99.90;;;;;;5096582;28;20297;-68
2022/12/01 11:21:45;;;;;;;;;;;4.30;99.90;;;;;;5084782;28;19952;-69
2022/12/01 11:24:17;;;;;;;;;;;4.30;99.90;;;;;;5084736;28;20175;-69
2022/12/01 11:26:45;;;;;;;;;;;4.30;99.90;;;;;;5084089;28;19952;-69
2022/12/01 11:29:22;;;;;;;;;;;4.30;99.90;;;;;;5084460;28;19952;-69
2022/12/01 11:31:51;;;;;;;;;;;4.50;99.90;;;;;;5084694;28;19970;-69
2022/12/01 11:34:20;;;;;;;;;;;4.60;99.90;;;;;;5090919;28;19926;-69
2022/12/01 11:36:48;;;;;;;;;;;4.70;99.90;;;;;;5104093;28;19951;-69
2022/12/01 11:39:21;;;;;;;;;;;4.80;99.90;;;;;;5104387;28;19926;-69
2022/12/01 11:41:54;;;;;;;;;;;4.90;99.90;;;;;;5084404;28;19927;-70
2022/12/01 11:44:21;;;;;;;;;;;5.00;99.90;;;;;;5084101;28;20123;-68
2022/12/01 11:46:48;;;;;;;;;;;5.10;99.90;;;;;;5083255;28;19987;-69
2022/12/01 11:49:16;;;;;;;;;;;5.10;99.90;;;;;;5083879;28;19947;-69
2022/12/01 11:51:43;;;;;;;;;;;5.10;99.90;;;;;;5083990;28;20231;-69
2022/12/01 11:54:14;;;;;;;;;;;5.00;99.90;;;;;;5084139;28;19952;-69
2022/12/01 11:56:41;;;;;;;;;;;5.10;99.90;;;;;;5083476;28;19943;-69
2022/12/01 11:59:12;;;;;;;;;;;5.10;99.90;;;;;;5083974;28;19987;-69
2022/12/01 12:01:45;;;;;;;;;;;5.10;99.90;;;;;;5083709;28;19927;-69
2022/12/01 12:04:22;;;;;;;;;;;5.10;99.90;;;;;;5083649;28;19944;-69
2022/12/01 12:06:55;;;;;;;;;;;5.00;99.90;;;;;;5083257;28;19955;-67
2022/12/01 12:09:35;;;;;;;;;;;5.00;99.90;;;;;;5083677;28;19960;-69
2022/12/01 12:12:05;;;;;;;;;;;4.90;99.90;;;;;;5083737;28;19920;-68
2022/12/01 12:14:37;;;;;;;;;;;4.90;99.90;;;;;;5083511;28;19962;-69
2022/12/01 12:17:22;;;;;;;;;;;4.80;99.90;;;;;;5082801;28;19983;-68
2022/12/01 12:19:59;;;;;;;;;;;4.70;99.90;;;;;;5091387;28;19983;-69
2022/12/01 12:22:30;;;;;;;;;;;4.70;99.90;;;;;;5083711;28;19964;-69
2022/12/01 12:25:02;;;;;;;;;;;4.80;99.90;;;;;;5083237;28;20158;-68
2022/12/01 12:27:33;;;;;;;;;;;4.80;99.90;;;;;;5082919;28;19920;-68
2022/12/01 12:30:05;;;;;;;;;;;4.90;99.90;;;;;;5083839;28;19990;-69
2022/12/01 12:32:39;;;;;;;;;;;5.00;99.90;;;;;;5080794;28;20171;-69
2022/12/01 12:35:15;;;;;;;;;;;5.00;99.90;;;;;;5091418;28;19983;-69
2022/12/01 12:37:46;;;;;;;;;;;5.10;99.90;;;;;;5103245;28;20158;-68
2022/12/01 12:40:26;;;;;;;;;;;5.10;99.90;;;;;;5103030;28;20786;-69
2022/12/01 12:42:58;;;;;;;;;;;5.00;99.90;;;;;;5103679;28;20115;-69
2022/12/01 12:45:31;;;;;;;;;;;4.90;99.90;;;;;;5103902;28;20164;-68
2022/12/01 12:48:04;;;;;;;;;;;5.00;99.90;;;;;;5102735;28;19987;-69
2022/12/01 12:50:34;;;;;;;;;;;4.90;99.90;;;;;;5103710;28;19963;-68
2022/12/01 12:53:02;;;;;;;;;;;4.90;99.90;;;;;;5103711;28;19983;-69
2022/12/01 12:55:32;;;;;;;;;;;4.90;99.90;;;;;;5103302;28;19927;-68
2022/12/01 12:58:03;;;;;;;;;;;4.90;99.90;;;;;;5103094;28;19948;-69
2022/12/01 13:00:31;;;;;;;;;;;4.90;99.90;;;;;;5103351;28;19955;-69
2022/12/01 13:02:59;;;;;;;;;;;4.90;99.90;;;;;;5103420;28;19981;-69
2022/12/01 13:05:29;;;;;;;;;;;4.90;99.90;;;;;;5103340;28;19920;-69
2022/12/01 13:07:59;;;;;;;;;;;4.90;99.90;;;;;;5102602;28;19943;-69
2022/12/01 13:10:28;;;;;;;;;;;4.80;99.90;;;;;;5103744;28;19963;-69
2022/12/01 13:13:00;;;;;;;;;;;4.80;99.90;;;;;;5103455;28;19951;-69
2022/12/01 13:15:27;;;;;;;;;;;4.90;99.90;;;;;;5103467;28;19983;-68
2022/12/01 13:17:57;;;;;;;;;;;4.90;99.90;;;;;;5102682;28;19959;-68
2022/12/01 13:20:26;;;;;;;;;;;4.90;99.90;;;;;;5094654;28;19958;-69
2022/12/01 13:22:53;;;;;;;;;;;4.90;99.90;;;;;;5103135;28;19965;-68
2022/12/01 13:25:23;;;;;;;;;;;5.00;99.90;;;;;;5103074;28;20223;-69
2022/12/01 13:27:50;;;;;;;;;;;5.00;99.90;;;;;;5102760;28;19955;-69
2022/12/01 13:30:18;;;;;;;;;;;5.00;99.90;;;;;;5103061;28;20223;-69
2022/12/01 13:32:46;;;;;;;;;;;5.00;99.90;;;;;;5101613;28;19956;-69
2022/12/01 13:35:24;;;;;;;;;;;5.10;99.90;;;;;;5102379;28;19991;-69
2022/12/01 13:37:51;;;;;;;;;;;5.00;99.90;;;;;;5105956;28;19962;-69
2022/12/01 13:40:21;;;;;;;;;;;5.00;99.90;;;;;;5106635;28;20123;-68
2022/12/01 13:42:54;;;;;;;;;;;4.90;99.90;;;;;;5106642;28;19963;-68
2022/12/01 13:45:21;;;;;;;;;;;4.90;99.90;;;;;;5106642;28;19963;-69
2022/12/01 13:47:49;;;;;;;;;;;4.90;99.90;;;;;;5105979;28;19920;-68
2022/12/01 13:50:34;;;;;;;;;;;4.90;99.90;;;;;;5106677;28;19962;-69
2022/12/01 13:53:10;;;;;;;;;;;5.00;99.90;;;;;;5106352;28;19920;-69
2022/12/01 13:55:52;;;;;;;;;;;5.00;99.90;;;;;;5106187;28;19987;-68
2022/12/01 13:58:24;;;;;;;;;;;5.10;99.90;;;;;;5106267;28;19920;-69
2022/12/01 14:00:51;;;;;;;;;;;5.10;99.90;;;;;;5106510;28;19924;-69
2022/12/01 14:03:37;;;;;;;;;;;5.10;99.90;;;;;;5106296;28;19927;-69
2022/12/01 14:06:08;;;;;;;;;;;5.00;99.90;;;;;;5105763;28;19965;-68
2022/12/01 14:08:37;;;;;;;;;;;5.00;99.90;;;;;;5106440;28;19979;-69
2022/12/01 14:11:05;;;;;;;;;;;5.00;99.90;;;;;;5106484;28;19935;-69
2022/12/01 14:13:46;;;;;;;;;;;5.00;99.90;;;;;;5105888;28;19955;-68
2022/12/01 14:16:13;;;;;;;;;;;5.10;99.90;;;;;;5105235;28;20263;-69
2022/12/01 14:18:41;;;;;;;;;;;5.00;99.90;;;;;;5106024;28;19987;-69
2022/12/01 14:21:09;;;;;;;;;;;5.00;99.90;;;;;;5106192;28;19991;-69
2022/12/01 14:23:40;;;;;;;;;;;5.10;99.90;;;;;;5105854;28;19920;-69
2022/12/01 14:26:14;;;;;;;;;;;5.10;99.90;;;;;;5105342;28;19920;-68
2022/12/01 14:28:59;;;;;;;;;;;5.10;99.90;;;;;;5101885;28;19951;-70
2022/12/01 14:31:54;;;;;;;;;;;5.00;99.90;;;;;;5093890;28;19979;-69
2022/12/01 14:34:25;;;;;;;;;;;5.10;99.90;;;;;;5082597;28;20351;-69
2022/12/01 14:36:54;;;;;;;;;;;5.00;99.90;;;;;;5103606;28;19983;-68
2022/12/01 14:39:22;;;;;;;;;;;5.00;99.90;;;;;;5105779;28;19997;-68
2022/12/01 14:41:50;;;;;;;;;;;5.00;99.90;;;;;;5103677;28;19947;-69
2022/12/01 14:44:20;;;;;;;;;;;5.00;99.90;;;;;;5104787;28;19958;-69
2022/12/01 14:46:50;;;;;;;;;;;5.00;99.90;;;;;;5104457;28;19943;-69